Time;durP1;ratioP1;P1;durP2;ratioP2;P2;SDS_P1;SDS_P2;PMS_P1;PMS_P2;Temp;Humidity;BMP_temperature;BMP_pressure;BME280_temperature;BME280_humidity;BME280_pressure;Samples;Min_cycle;Max_cycle;Signal;HPM_P1;HPM_P2
2021/06/13 00:00:25;;;;;;;4.05;1.80;;;;;;;17.70;77.99;97374.19;5040190;28;20404;-66
2021/06/13 00:02:51;;;;;;;3.95;1.70;;;;;;;17.63;78.44;97380.56;5058574;28;20041;-66
2021/06/13 00:05:17;;;;;;;5.63;1.90;;;;;;;17.50;79.64;97377.41;5037328;28;20451;-67
2021/06/13 00:07:43;;;;;;;5.20;1.88;;;;;;;17.56;79.96;97378.56;5039408;28;20053;-69
2021/06/13 00:10:10;;;;;;;3.58;2.10;;;;;;;17.66;79.61;97381.72;5034575;28;20065;-68
2021/06/13 00:12:36;;;;;;;2.97;2.03;;;;;;;17.74;79.04;97375.78;5048086;28;20335;-68
2021/06/13 00:15:03;;;;;;;4.82;1.88;;;;;;;17.84;78.76;97378.94;5046510;28;20041;-67
2021/06/13 00:17:29;;;;;;;2.65;1.85;;;;;;;17.95;78.00;97366.69;5047512;28;20051;-67
2021/06/13 00:19:56;;;;;;;2.97;2.13;;;;;;;17.95;77.57;97374.19;5053303;28;20037;-68
2021/06/13 00:22:21;;;;;;;5.20;2.38;;;;;;;17.92;77.91;97372.25;5058904;28;22149;-68
2021/06/13 00:24:46;;;;;;;3.08;2.03;;;;;;;17.83;78.51;97374.59;5043775;28;20429;-68
2021/06/13 00:27:12;;;;;;;4.68;1.90;;;;;;;17.81;78.69;97372.22;5040043;28;20106;-68
2021/06/13 00:29:37;;;;;;;4.82;2.22;;;;;;;17.85;78.76;97373.03;5047632;28;20083;-68
2021/06/13 00:32:04;;;;;;;4.15;2.15;;;;;;;17.93;78.13;97376.56;5062207;28;20127;-67
2021/06/13 00:34:29;;;;;;;20.33;11.82;;;;;;;17.95;78.11;97375.00;5045562;28;20094;-67
2021/06/13 00:36:55;;;;;;;3.80;2.10;;;;;;;17.96;77.92;97370.25;5048562;28;20044;-67
2021/06/13 00:39:20;;;;;;;3.53;2.08;;;;;;;17.91;77.57;97367.88;5042314;28;20093;-69
2021/06/13 00:41:46;;;;;;;5.82;1.65;;;;;;;17.91;78.50;97382.50;5043481;28;20073;-69
2021/06/13 00:44:11;;;;;;;4.10;1.80;;;;;;;17.98;78.54;97373.41;5038053;28;20440;-66
2021/06/13 00:46:40;;;;;;;2.60;1.73;;;;;;;18.08;78.61;97366.25;5042993;28;20047;-68
2021/06/13 00:49:06;;;;;;;3.65;1.80;;;;;;;18.04;78.83;97373.78;5036758;28;20114;-66
2021/06/13 00:51:31;;;;;;;3.90;1.70;;;;;;;17.99;78.69;97369.44;5042316;28;20045;-69
2021/06/13 00:53:56;;;;;;;3.55;2.47;;;;;;;17.92;78.93;97367.47;5058135;28;20384;-68
2021/06/13 00:56:22;;;;;;;3.88;2.00;;;;;;;17.74;80.33;97364.72;5043299;28;20048;-68
2021/06/13 00:58:48;;;;;;;4.38;1.75;;;;;;;17.93;79.85;97371.84;5043773;28;20370;-68
2021/06/13 01:01:14;;;;;;;2.65;1.85;;;;;;;18.04;79.23;97368.25;5039507;28;20052;-66
2021/06/13 01:03:39;;;;;;;3.80;1.88;;;;;;;18.07;79.06;97379.31;5042432;28;20037;-67
2021/06/13 01:06:05;;;;;;;2.35;1.50;;;;;;;18.08;78.74;97375.38;5038638;28;20056;-66
2021/06/13 01:08:42;;;;;;;4.75;1.80;;;;;;;18.04;78.76;97373.78;5039488;28;20040;-67
2021/06/13 01:11:31;;;;;;;3.78;1.85;;;;;;;17.96;79.35;97375.78;5025574;28;20498;-66
2021/06/13 01:13:57;;;;;;;4.00;2.13;;;;;;;17.95;79.39;97379.72;5039814;28;20428;-68
2021/06/13 01:16:31;;;;;;;7.85;2.20;;;;;;;17.94;79.39;97380.94;5051388;28;20044;-67
2021/06/13 01:19:15;;;;;;;3.38;2.03;;;;;;;17.93;79.17;97373.81;5044837;28;20049;-68
2021/06/13 01:21:56;;;;;;;3.45;2.30;;;;;;;17.90;79.24;97360.78;5050165;28;20048;-68
2021/06/13 01:24:37;;;;;;;3.63;2.15;;;;;;;17.84;79.61;97365.09;5041833;28;20578;-68
2021/06/13 01:27:42;;;;;;;3.22;2.28;;;;;;;17.74;80.11;97361.16;5019980;28;20091;-67
2021/06/13 01:30:08;;;;;;;5.10;2.45;;;;;;;17.71;80.32;97361.94;4950676;28;20399;-67
2021/06/13 01:32:34;;;;;;;5.20;2.70;;;;;;;17.66;80.09;97368.66;4979526;28;20050;-67
2021/06/13 01:35:05;;;;;;;5.05;2.15;;;;;;;17.62;80.44;97359.56;5000673;28;20038;-67
2021/06/13 01:37:35;;;;;;;5.85;2.50;;;;;;;17.75;80.33;97359.94;5036860;28;20052;-67
2021/06/13 01:40:08;;;;;;;6.63;2.70;;;;;;;17.56;79.90;97361.19;5035514;28;20045;-67
2021/06/13 01:42:36;;;;;;;6.38;2.75;;;;;;;16.27;88.40;97367.22;5044413;28;20734;-64
2021/06/13 01:45:06;;;;;;;4.68;2.75;;;;;;;16.51;87.65;97365.75;5029256;28;20506;-64
2021/06/13 01:47:35;;;;;;;4.00;2.50;;;;;;;16.77;86.72;97369.38;5046839;28;20490;-66
2021/06/13 01:50:03;;;;;;;5.88;2.92;;;;;;;16.93;85.14;97363.50;5040435;28;20043;-65
2021/06/13 01:52:33;;;;;;;5.53;3.25;;;;;;;17.02;83.94;97365.91;5039548;28;20044;-65
2021/06/13 01:54:59;;;;;;;8.57;3.17;;;;;;;17.00;83.96;97360.75;5041311;28;20044;-65
2021/06/13 01:57:26;;;;;;;7.43;2.72;;;;;;;17.19;83.34;97365.91;5043203;28;20212;-65
2021/06/13 01:59:54;;;;;;;7.03;3.20;;;;;;;17.36;82.62;97363.56;5059784;28;20045;-65
2021/06/13 02:02:20;;;;;;;3.70;2.80;;;;;;;17.50;81.69;97362.75;5038441;28;20516;-65
2021/06/13 02:04:46;;;;;;;3.75;2.35;;;;;;;17.60;81.17;97367.50;5064713;28;20044;-66
2021/06/13 02:07:14;;;;;;;4.88;2.97;;;;;;;17.74;80.17;97356.41;5055374;28;20120;-65
2021/06/13 02:09:42;;;;;;;4.40;3.08;;;;;;;17.77;79.30;97358.38;5043464;28;20102;-65
2021/06/13 02:12:08;;;;;;;4.18;2.95;;;;;;;17.87;79.25;97356.00;5035442;28;20037;-64
2021/06/13 02:14:35;;;;;;;6.07;2.90;;;;;;;17.93;78.83;97358.00;5040422;28;20045;-65
2021/06/13 02:17:02;;;;;;;4.40;2.75;;;;;;;18.01;78.40;97363.50;5040892;28;20386;-65
2021/06/13 02:19:29;;;;;;;6.40;3.33;;;;;;;17.91;78.45;97356.78;5037005;28;20048;-66
2021/06/13 02:21:57;;;;;;;5.07;2.83;;;;;;;17.83;79.01;97352.44;5055648;28;20033;-64
2021/06/13 02:24:31;;;;;;;5.72;2.85;;;;;;;17.60;80.02;97356.41;5035945;28;20497;-66
2021/06/13 02:26:57;;;;;;;4.10;2.80;;;;;;;17.68;80.24;97357.19;5036185;28;20510;-65
2021/06/13 02:29:27;;;;;;;3.83;2.65;;;;;;;17.67;80.15;97353.63;5015530;28;20059;-65
2021/06/13 02:31:55;;;;;;;4.53;2.95;;;;;;;17.61;80.14;97354.44;5021038;28;20041;-65
2021/06/13 02:34:23;;;;;;;4.72;2.95;;;;;;;17.59;80.27;97349.28;5015857;28;20049;-65
2021/06/13 02:36:51;;;;;;;8.02;3.28;;;;;;;17.40;80.37;97353.25;5022152;28;20033;-65
2021/06/13 02:39:19;;;;;;;6.68;3.00;;;;;;;17.43;80.92;97351.66;5036108;28;20120;-66
2021/06/13 02:41:47;;;;;;;6.43;3.20;;;;;;;17.61;80.37;97355.25;5039571;28;20051;-65
2021/06/13 02:44:12;;;;;;;7.85;3.33;;;;;;;17.51;80.66;97356.03;5035630;28;20044;-65
2021/06/13 02:46:38;;;;;;;3.75;2.90;;;;;;;17.62;80.81;97353.25;5039704;28;20102;-65
2021/06/13 02:49:05;;;;;;;3.88;2.78;;;;;;;17.59;81.02;97354.81;5036468;28;20094;-65
2021/06/13 02:51:41;;;;;;;5.43;3.65;;;;;;;17.13;83.85;97353.66;5036333;28;20046;-64
2021/06/13 02:54:10;;;;;;;7.10;3.30;;;;;;;16.86;85.82;97355.19;5030809;28;20493;-66
2021/06/13 02:56:48;;;;;;;4.75;3.70;;;;;;;16.48;87.97;97358.22;5039123;28;20051;-65
2021/06/13 02:59:41;;;;;;;4.57;3.67;;;;;;;16.53;88.68;97365.34;5033652;28;20401;-66
2021/06/13 03:02:11;;;;;;;5.50;3.22;;;;;;;16.78;87.94;97355.16;5034662;28;20504;-65
2021/06/13 03:04:38;;;;;;;;;;;;;;;17.03;86.23;97364.69;5041658;28;20044;-66
2021/06/13 03:07:04;;;;;;;5.32;3.22;;;;;;;17.18;85.12;97366.31;5038380;28;19921;-67
2021/06/13 03:09:32;;;;;;;8.02;2.90;;;;;;;17.35;84.40;97370.28;5038302;28;20037;-66
2021/06/13 03:11:59;;;;;;;5.22;3.20;;;;;;;17.40;83.81;97364.34;5040160;28;20048;-66
2021/06/13 03:14:28;;;;;;;4.82;2.78;;;;;;;17.56;82.41;97364.72;5021742;28;20517;-64
2021/06/13 03:16:56;;;;;;;7.68;3.45;;;;;;;17.66;82.09;97365.88;5020576;28;20080;-65
2021/06/13 03:19:22;;;;;;;3.83;3.00;;;;;;;17.68;81.57;97374.63;5015411;28;20041;-65
2021/06/13 03:21:49;;;;;;;5.30;3.60;;;;;;;17.58;81.69;97373.44;5020521;28;20732;-65
2021/06/13 03:24:16;;;;;;;6.38;3.10;;;;;;;17.46;82.46;97376.59;5016144;28;20402;-65
2021/06/13 03:26:43;;;;;;;5.90;3.75;;;;;;;17.51;82.61;97372.66;5020289;28;20409;-65
2021/06/13 03:29:10;;;;;;;5.95;2.92;;;;;;;17.53;82.61;97379.34;5015634;28;20192;-65
2021/06/13 03:31:36;;;;;;;4.80;3.10;;;;;;;17.49;82.85;97375.81;5018430;28;20641;-65
2021/06/13 03:34:02;;;;;;;6.55;3.42;;;;;;;17.38;83.37;97375.81;5020257;28;20065;-66
2021/06/13 03:36:30;;;;;;;5.15;3.08;;;;;;;17.29;83.54;97380.16;5016827;28;20109;-66
2021/06/13 03:38:57;;;;;;;7.93;3.28;;;;;;;17.30;83.68;97373.44;5017656;28;20042;-66
2021/06/13 03:41:24;;;;;;;5.38;3.22;;;;;;;17.23;83.77;97376.97;5014344;28;20608;-65
2021/06/13 03:43:54;;;;;;;5.47;3.28;;;;;;;17.15;84.19;97380.94;5018604;28;20038;-66
2021/06/13 03:46:21;;;;;;;5.25;3.40;;;;;;;17.25;84.30;97382.13;5012465;28;20536;-65
2021/06/13 03:48:49;;;;;;;11.43;3.80;;;;;;;17.31;83.83;97380.56;5020651;28;20048;-65
2021/06/13 03:51:17;;;;;;;7.38;3.45;;;;;;;17.33;83.29;97378.97;5015859;28;20049;-65
2021/06/13 03:53:54;;;;;;;4.10;3.30;;;;;;;17.35;83.10;97384.91;5023559;28;20096;-65
2021/06/13 03:56:25;;;;;;;6.53;3.85;;;;;;;17.30;83.59;97390.81;5039260;22;20053;-71
2021/06/13 03:58:52;;;;;;;7.13;3.45;;;;;;;17.35;83.90;97392.41;5041907;28;20052;-67
2021/06/13 04:01:20;;;;;;;6.68;3.80;;;;;;;17.43;83.16;97390.44;5038831;28;20626;-67
2021/06/13 04:03:51;;;;;;;3.88;2.95;;;;;;;17.57;82.69;97385.72;5048298;28;20063;-69
2021/06/13 04:06:24;;;;;;;3.78;3.20;;;;;;;17.76;82.59;97397.56;5056882;28;20087;-67
2021/06/13 04:08:51;;;;;;;4.22;3.05;;;;;;;18.06;81.88;97404.66;5035003;28;20037;-67
2021/06/13 04:11:21;;;;;;;5.40;3.42;;;;;;;18.23;79.68;97401.06;5025895;28;20037;-67
2021/06/13 04:13:47;;;;;;;8.25;3.70;;;;;;;18.18;79.22;97403.47;5033857;28;20040;-66
2021/06/13 04:16:15;;;;;;;4.93;3.22;;;;;;;18.10;79.25;97408.22;5019062;28;20030;-66
2021/06/13 04:18:42;;;;;;;6.05;3.63;;;;;;;18.40;77.64;97401.41;5034665;28;20068;-67
2021/06/13 04:21:10;;;;;;;4.75;3.83;;;;;;;18.74;75.69;97401.66;5033125;28;20049;-65
2021/06/13 04:23:38;;;;;;;6.75;4.38;;;;;;;18.51;73.30;97404.91;5033729;28;20067;-67
2021/06/13 04:26:04;;;;;;;7.20;5.07;;;;;;;18.31;73.38;97399.03;5019915;28;20064;-67
2021/06/13 04:28:30;;;;;;;7.55;4.95;;;;;;;18.34;72.69;97406.56;5023904;28;20077;-66
2021/06/13 04:31:01;;;;;;;8.30;4.50;;;;;;;18.06;73.45;97405.47;5024032;28;20394;-67
2021/06/13 04:33:29;;;;;;;7.35;5.22;;;;;;;17.97;73.02;97402.31;5018860;28;20049;-66
2021/06/13 04:35:54;;;;;;;7.93;5.03;;;;;;;18.20;72.41;97410.16;5023397;28;20115;-67
2021/06/13 04:38:20;;;;;;;8.85;5.68;;;;;;;18.29;71.06;97402.25;5019339;28;20041;-65
2021/06/13 04:40:46;;;;;;;6.90;5.47;;;;;;;18.59;71.13;97412.03;5022326;28;20406;-67
2021/06/13 04:43:12;;;;;;;6.93;4.60;;;;;;;18.88;69.29;97418.25;5016956;28;20053;-66
2021/06/13 04:45:37;;;;;;;9.02;5.15;;;;;;;18.62;69.39;97414.00;5022110;28;20083;-67
2021/06/13 04:48:06;;;;;;;5.85;4.47;;;;;;;18.91;69.55;97411.91;5019944;28;20041;-68
2021/06/13 04:50:35;;;;;;;8.10;4.95;;;;;;;19.68;67.07;97407.44;5023426;28;20045;-68
2021/06/13 04:53:02;;;;;;;7.28;5.07;;;;;;;20.78;61.89;97409.50;5022888;28;20052;-67
2021/06/13 04:55:36;;;;;;;8.52;5.20;;;;;;;21.88;58.48;97405.50;5018834;28;20052;-67
2021/06/13 04:58:09;;;;;;;6.65;4.15;;;;;;;22.35;56.30;97411.03;5022801;28;20053;-66
2021/06/13 05:00:35;;;;;;;6.88;3.83;;;;;;;22.33;56.23;97407.91;5021481;28;20037;-67
2021/06/13 05:03:00;;;;;;;6.18;4.32;;;;;;;22.09;56.28;97410.69;5021379;28;20049;-65
2021/06/13 05:05:26;;;;;;;6.38;4.55;;;;;;;21.08;59.41;97411.47;5018263;28;20042;-67
2021/06/13 05:07:51;;;;;;;7.78;4.97;;;;;;;20.25;61.63;97411.66;5023282;28;20045;-67
2021/06/13 05:10:17;;;;;;;7.45;4.85;;;;;;;20.04;63.10;97410.69;5017644;28;20066;-67
2021/06/13 05:12:50;;;;;;;6.82;4.93;;;;;;;19.94;63.82;97422.72;5025569;28;20115;-67
2021/06/13 05:15:17;;;;;;;12.30;4.70;;;;;;;19.76;64.51;97425.66;5018377;28;20038;-67
2021/06/13 05:17:43;;;;;;;10.60;4.65;;;;;;;20.04;62.91;97423.78;5023712;28;20041;-66
2021/06/13 05:20:09;;;;;;;8.20;4.63;;;;;;;20.33;61.69;97427.09;5017271;28;20071;-67
2021/06/13 05:23:05;;;;;;;8.35;5.78;;;;;;;20.20;61.68;97428.81;5021576;28;20045;-67
2021/06/13 05:25:33;;;;;;;11.88;6.00;;;;;;;20.31;60.70;97437.03;5021976;28;20588;-67
2021/06/13 05:28:00;;;;;;;10.02;5.85;;;;;;;20.76;59.45;97436.94;5022742;28;20048;-67
2021/06/13 05:30:31;;;;;;;10.25;5.50;;;;;;;20.36;59.79;97442.16;5017492;28;20199;-67
2021/06/13 05:32:57;;;;;;;8.70;5.70;;;;;;;21.02;58.15;97440.22;5022075;28;20065;-68
2021/06/13 05:35:23;;;;;;;8.10;5.45;;;;;;;21.50;56.47;97436.38;5016425;28;20841;-67
2021/06/13 05:37:49;;;;;;;9.00;5.00;;;;;;;22.08;54.97;97439.03;5021814;28;20362;-66
2021/06/13 05:40:16;;;;;;;8.65;5.97;;;;;;;19.92;58.54;97449.34;5017225;28;20042;-67
2021/06/13 05:42:42;;;;;;;10.77;6.20;;;;;;;20.17;58.97;97446.34;5021103;28;20042;-66
2021/06/13 05:45:09;;;;;;;9.40;5.57;;;;;;;21.19;56.29;97436.38;5016394;28;20055;-67
2021/06/13 05:47:36;;;;;;;12.18;6.32;;;;;;;20.35;56.79;97443.38;5021952;28;20387;-67
2021/06/13 05:50:03;;;;;;;12.70;5.47;;;;;;;20.91;56.71;97440.38;5021290;28;20053;-67
2021/06/13 05:52:29;;;;;;;8.18;5.38;;;;;;;21.70;54.55;97445.63;5020969;28;20044;-68
2021/06/13 05:54:57;;;;;;;9.88;5.38;;;;;;;22.30;53.84;97454.16;5020093;28;20132;-67
2021/06/13 05:57:30;;;;;;;11.43;5.85;;;;;;;22.49;51.29;97451.81;5016075;28;20076;-68
2021/06/13 06:00:08;;;;;;;10.10;5.80;;;;;;;21.85;53.87;97454.53;5031580;28;20046;-68
2021/06/13 06:02:33;;;;;;;11.05;6.20;;;;;;;21.75;54.81;97453.50;5023056;28;20048;-67
2021/06/13 06:04:59;;;;;;;9.05;5.43;;;;;;;21.70;54.94;97453.97;5022221;28;20042;-65
2021/06/13 06:07:24;;;;;;;10.88;6.40;;;;;;;20.97;58.17;97458.94;5016731;28;20128;-66
2021/06/13 06:09:50;;;;;;;14.38;6.35;;;;;;;21.52;56.59;97457.03;5018945;28;20042;-68
2021/06/13 06:12:16;;;;;;;9.88;5.00;;;;;;;22.77;52.79;97456.06;5016272;28;20065;-68
2021/06/13 06:14:44;;;;;;;12.63;6.50;;;;;;;21.66;55.64;97456.03;5021983;28;20049;-67
2021/06/13 06:17:09;;;;;;;9.50;5.78;;;;;;;22.18;54.54;97460.34;5016509;28;20045;-67
2021/06/13 06:19:36;;;;;;;9.98;5.90;;;;;;;22.35;54.95;97464.06;5021989;28;20048;-68
2021/06/13 06:22:02;;;;;;;12.32;6.10;;;;;;;21.66;55.83;97467.19;5021919;28;20144;-68
2021/06/13 06:24:28;;;;;;;10.05;6.90;;;;;;;21.49;56.80;97468.25;5019100;28;20111;-68
2021/06/13 06:26:53;;;;;;;10.15;6.72;;;;;;;21.77;56.37;97475.38;5028262;28;20045;-68
2021/06/13 06:29:20;;;;;;;7.80;6.18;;;;;;;21.81;55.83;97484.47;5020021;28;20140;-68
2021/06/13 06:31:46;;;;;;;12.02;6.80;;;;;;;22.39;53.04;97475.94;5021825;28;20049;-68
2021/06/13 06:34:12;;;;;;;13.38;7.40;;;;;;;22.07;55.26;97484.84;5017138;28;20107;-68
2021/06/13 06:36:37;;;;;;;11.65;6.72;;;;;;;20.70;58.67;97486.72;5021854;28;20050;-67
2021/06/13 06:39:03;;;;;;;10.55;6.70;;;;;;;21.61;57.38;97489.16;5029546;28;20086;-66
2021/06/13 06:41:29;;;;;;;11.68;6.25;;;;;;;21.17;58.45;97486.16;5033088;28;20046;-66
2021/06/13 06:43:54;;;;;;;15.57;6.97;;;;;;;20.29;60.64;97497.88;5035870;28;20041;-67
2021/06/13 06:46:19;;;;;;;11.73;7.40;;;;;;;19.70;62.33;97496.75;5016819;28;20037;-67
2021/06/13 06:48:45;;;;;;;10.00;7.00;;;;;;;20.43;61.34;97494.94;5021900;28;20037;-66
2021/06/13 06:51:10;;;;;;;11.35;7.00;;;;;;;20.39;60.33;97496.97;5017821;28;20088;-65
2021/06/13 06:53:36;;;;;;;13.93;7.10;;;;;;;20.36;59.88;97498.56;5026453;28;20045;-67
2021/06/13 06:56:02;;;;;;;13.73;7.30;;;;;;;21.41;58.74;97509.34;5022187;28;20043;-67
2021/06/13 06:58:27;;;;;;;9.75;6.30;;;;;;;21.13;57.79;97507.72;5017273;28;20041;-68
2021/06/13 07:00:53;;;;;;;13.18;6.90;;;;;;;22.84;54.00;97505.41;5024683;28;20060;-67
2021/06/13 07:03:19;;;;;;;9.60;6.35;;;;;;;24.53;49.66;97508.00;5015941;28;20033;-66
2021/06/13 07:05:44;;;;;;;8.75;5.75;;;;;;;23.93;49.89;97511.09;5025437;28;20048;-68
2021/06/13 07:08:10;;;;;;;9.07;5.43;;;;;;;24.90;48.67;97510.63;5015544;28;20056;-67
2021/06/13 07:10:35;;;;;;;10.40;6.20;;;;;;;23.78;49.26;97507.81;5021567;28;20152;-67
2021/06/13 07:13:02;;;;;;;10.43;6.32;;;;;;;21.71;54.68;97510.50;5017093;28;20042;-65
2021/06/13 07:15:28;;;;;;;11.80;6.50;;;;;;;21.37;56.24;97514.97;5018828;28;20068;-67
2021/06/13 07:17:54;;;;;;;10.32;6.55;;;;;;;21.09;55.81;97521.69;5017869;28;20041;-67
2021/06/13 07:20:19;;;;;;;10.85;6.72;;;;;;;20.22;59.43;97521.78;5014580;28;20052;-66
2021/06/13 07:22:46;;;;;;;11.27;6.53;;;;;;;20.50;57.89;97519.91;5021214;28;20041;-68
2021/06/13 07:25:12;;;;;;;12.88;6.18;;;;;;;20.81;58.37;97523.59;5016329;28;20049;-67
2021/06/13 07:27:38;;;;;;;9.48;6.68;;;;;;;22.05;55.23;97512.38;5022581;28;20041;-67
2021/06/13 07:30:08;;;;;;;7.57;5.57;;;;;;;22.75;51.60;97514.34;5015432;28;20049;-67
2021/06/13 07:32:35;;;;;;;12.73;6.57;;;;;;;23.32;49.95;97517.22;5023865;28;20042;-68
2021/06/13 07:35:02;;;;;;;8.35;5.35;;;;;;;23.05;50.93;97510.59;5024891;28;20562;-67
2021/06/13 07:37:27;;;;;;;11.02;5.55;;;;;;;23.45;49.66;97527.31;5019092;28;20045;-67
2021/06/13 07:39:53;;;;;;;10.85;6.28;;;;;;;24.73;45.70;97527.47;5024137;28;20041;-68
2021/06/13 07:42:18;;;;;;;8.85;5.93;;;;;;;25.93;42.80;97512.41;5018044;28;20060;-67
2021/06/13 07:44:44;;;;;;;9.98;5.47;;;;;;;23.49;50.08;97518.84;5025000;28;20482;-67
2021/06/13 07:47:09;;;;;;;8.63;5.68;;;;;;;24.56;46.35;97525.94;5030505;28;20073;-67
2021/06/13 07:49:35;;;;;;;9.90;5.68;;;;;;;22.38;52.07;97526.59;5026145;28;20053;-67
2021/06/13 07:52:00;;;;;;;14.57;10.15;;;;;;;21.55;54.02;97525.88;5024061;28;20045;-67
2021/06/13 07:54:27;;;;;;;14.70;8.05;;;;;;;21.10;55.13;97526.03;5019660;28;20041;-67
2021/06/13 07:56:53;;;;;;;8.80;5.97;;;;;;;21.45;55.42;97523.22;5024670;28;20512;-66
2021/06/13 07:59:18;;;;;;;12.02;6.38;;;;;;;21.10;56.20;97523.25;5017572;28;20141;-65
2021/06/13 08:01:44;;;;;;;9.05;5.53;;;;;;;22.79;53.28;97528.25;5024133;28;20053;-66
2021/06/13 08:04:10;;;;;;;11.90;5.22;;;;;;;23.65;48.79;97527.28;5018066;28;20075;-67
2021/06/13 08:06:36;;;;;;;7.63;5.45;;;;;;;24.68;47.29;97530.03;5024276;28;20065;-66
2021/06/13 08:09:02;;;;;;;7.53;4.63;;;;;;;25.88;43.53;97521.34;5022287;28;20076;-68
2021/06/13 08:11:30;;;;;;;9.07;5.47;;;;;;;26.06;42.67;97523.59;5017967;28;20045;-65
2021/06/13 08:13:55;;;;;;;11.18;5.00;;;;;;;26.22;42.32;97521.91;5021614;28;20494;-68
2021/06/13 08:16:21;;;;;;;8.52;5.20;;;;;;;26.79;41.54;97521.97;5017198;28;20048;-67
2021/06/13 08:18:47;;;;;;;9.02;5.03;;;;;;;27.16;40.97;97514.59;5023055;28;20057;-66
2021/06/13 08:21:12;;;;;;;8.10;4.70;;;;;;;26.26;42.45;97525.38;5018543;28;20593;-67
2021/06/13 08:23:37;;;;;;;9.73;5.30;;;;;;;24.61;45.52;97528.19;5023686;28;20377;-67
2021/06/13 08:26:03;;;;;;;9.85;6.38;;;;;;;23.56;47.74;97527.09;5020948;28;20037;-68
2021/06/13 08:28:28;;;;;;;9.05;5.75;;;;;;;23.20;49.75;97518.69;5021040;28;20076;-67
2021/06/13 08:30:54;;;;;;;7.75;5.15;;;;;;;22.14;52.33;97526.56;5023566;28;20042;-67
2021/06/13 08:33:20;;;;;;;9.13;5.38;;;;;;;23.10;50.16;97528.84;5017100;28;20053;-67
2021/06/13 08:35:46;;;;;;;10.60;6.28;;;;;;;22.35;50.99;97530.25;5023391;28;20044;-66
2021/06/13 08:38:11;;;;;;;11.57;6.80;;;;;;;21.78;53.17;97524.34;5018002;28;20052;-66
2021/06/13 08:40:37;;;;;;;9.70;6.40;;;;;;;21.20;55.04;97532.69;5022368;28;20382;-67
2021/06/13 08:43:03;;;;;;;10.32;6.05;;;;;;;20.92;54.72;97533.81;5020504;28;20034;-67
2021/06/13 08:45:33;;;;;;;15.88;5.95;;;;;;;21.12;55.65;97531.19;5020078;28;20375;-67
2021/06/13 08:47:59;;;;;;;9.93;5.50;;;;;;;21.46;53.64;97519.25;5004012;28;20045;-67
2021/06/13 08:50:26;;;;;;;11.00;5.88;;;;;;;21.61;53.32;97522.59;5011379;28;20060;-67
2021/06/13 08:52:52;;;;;;;8.63;5.10;;;;;;;21.47;54.93;97523.63;5022286;28;20226;-67
2021/06/13 08:55:19;;;;;;;8.63;5.85;;;;;;;21.84;53.23;97531.03;5018535;28;20128;-68
2021/06/13 08:57:46;;;;;;;9.07;5.68;;;;;;;22.27;51.88;97529.56;5020585;28;20049;-67
2021/06/13 09:00:14;;;;;;;11.90;5.53;;;;;;;21.45;52.65;97528.78;5017980;28;20064;-67
2021/06/13 09:02:40;;;;;;;8.40;5.40;;;;;;;22.49;50.65;97532.78;5022378;28;20041;-67
2021/06/13 09:05:08;;;;;;;8.85;5.60;;;;;;;22.24;50.53;97539.56;5017012;28;20042;-68
2021/06/13 09:07:34;;;;;;;8.25;5.47;;;;;;;22.29;51.46;97538.31;5021683;28;20041;-68
2021/06/13 09:10:11;;;;;;;8.77;5.78;;;;;;;21.91;53.39;97538.50;5021807;28;20049;-67
2021/06/13 09:12:37;;;;;;;9.27;5.47;;;;;;;22.50;50.00;97545.53;5019198;28;20041;-66
2021/06/13 09:15:05;;;;;;;8.20;5.15;;;;;;;23.97;47.12;97536.97;5026762;28;20160;-66
2021/06/13 09:17:30;;;;;;;6.13;4.82;;;;;;;25.79;42.39;97535.25;5037264;28;20041;-67
2021/06/13 09:20:20;;;;;;;6.32;4.93;;;;;;;26.70;39.75;97539.53;5028365;28;20042;-66
2021/06/13 09:23:05;;;;;;;;;;;;;;;24.89;43.48;97549.06;5022805;28;20102;-68
2021/06/13 09:25:31;;;;;;;7.28;4.53;;;;;;;23.95;46.24;97545.03;5023023;28;19917;-66
2021/06/13 09:28:10;;;;;;;7.68;5.07;;;;;;;23.81;46.12;97546.13;5023020;28;20126;-66
2021/06/13 09:30:38;;;;;;;7.95;5.30;;;;;;;22.96;48.90;97543.88;5022645;28;20044;-68
2021/06/13 09:33:15;;;;;;;8.55;4.90;;;;;;;22.97;48.89;97539.06;5027552;28;20073;-67
2021/06/13 09:35:43;;;;;;;9.05;4.97;;;;;;;23.52;47.69;97540.38;5025994;28;20066;-67
2021/06/13 09:38:18;;;;;;;5.95;4.07;;;;;;;24.60;44.87;97538.63;5025927;28;20041;-68
2021/06/13 09:40:57;;;;;;;6.85;4.63;;;;;;;24.24;45.53;97536.72;5032177;28;20041;-67
2021/06/13 09:43:29;;;;;;;6.97;4.85;;;;;;;23.48;47.43;97536.88;5018416;28;20072;-67
2021/06/13 09:46:12;;;;;;;6.38;4.55;;;;;;;22.84;47.99;97541.72;5016415;28;20037;-66
2021/06/13 09:48:41;;;;;;;7.72;5.07;;;;;;;22.93;48.87;97541.94;5021170;28;20061;-66
2021/06/13 09:51:18;;;;;;;6.57;4.22;;;;;;;23.22;48.79;97544.97;5016482;28;20047;-67
2021/06/13 09:53:46;;;;;;;9.90;5.10;;;;;;;22.75;49.11;97542.28;5021903;28;20773;-68
2021/06/13 09:56:34;;;;;;;9.38;6.05;;;;;;;22.20;49.67;97547.22;5018869;28;20041;-66
2021/06/13 09:59:04;;;;;;;9.80;4.25;;;;;;;23.19;49.00;97542.25;5079356;22;20058;-65
2021/06/13 10:01:33;;;;;;;9.30;5.78;;;;;;;24.48;47.93;97542.09;5069032;28;20048;-66
2021/06/13 10:04:00;;;;;;;7.50;5.72;;;;;;;25.06;46.91;97530.16;5062521;28;20063;-66
2021/06/13 10:06:31;;;;;;;8.10;5.40;;;;;;;25.76;45.16;97530.53;5059850;28;20048;-66
2021/06/13 10:08:57;;;;;;;7.03;5.07;;;;;;;25.58;44.69;97533.91;5081004;28;20047;-67
2021/06/13 10:11:23;;;;;;;11.68;7.10;;;;;;;25.41;45.21;97533.22;5075633;28;20046;-67
2021/06/13 10:13:50;;;;;;;8.07;5.60;;;;;;;25.51;44.75;97523.69;5062161;28;20131;-67
2021/06/13 10:16:27;;;;;;;9.02;5.53;;;;;;;25.41;45.69;97530.41;5075309;28;20101;-66
2021/06/13 10:19:05;;;;;;;9.02;4.95;;;;;;;24.82;46.53;97537.28;5072186;28;20040;-67
2021/06/13 10:21:35;;;;;;;10.95;5.47;;;;;;;24.94;45.62;97533.75;5076816;28;20050;-65
2021/06/13 10:24:05;;;;;;;9.13;5.43;;;;;;;24.08;48.18;97531.13;5071339;28;20044;-65
2021/06/13 10:26:32;;;;;;;9.10;6.10;;;;;;;23.60;49.21;97533.38;5058234;28;20068;-65
2021/06/13 10:28:57;;;;;;;6.93;5.30;;;;;;;23.48;50.69;97534.06;5080740;28;20074;-66
2021/06/13 10:31:23;;;;;;;8.27;4.95;;;;;;;24.03;49.40;97540.03;5075532;28;20075;-64
2021/06/13 10:33:48;;;;;;;8.73;4.70;;;;;;;23.44;50.43;97536.94;5081154;28;20039;-66
2021/06/13 10:36:15;;;;;;;8.60;5.30;;;;;;;23.88;49.36;97533.19;5064143;28;20032;-66
2021/06/13 10:38:41;;;;;;;9.38;5.65;;;;;;;24.11;47.82;97530.25;5071468;28;20093;-67
2021/06/13 10:41:06;;;;;;;8.48;5.65;;;;;;;24.20;47.60;97538.81;5075408;28;20048;-65
2021/06/13 10:43:32;;;;;;;8.23;5.35;;;;;;;24.64;46.13;97532.16;5051694;28;20060;-65
2021/06/13 10:46:18;;;;;;;9.43;5.65;;;;;;;24.77;45.18;97527.38;5046311;28;20057;-67
2021/06/13 10:48:49;;;;;;;8.93;4.03;;;;;;;25.51;43.76;97525.69;5045351;28;20037;-65
2021/06/13 10:51:33;;;;;;;9.35;4.53;;;;;;;25.50;43.08;97524.16;5049550;28;20045;-66
2021/06/13 10:54:30;;;;;;;6.82;4.70;;;;;;;25.19;43.71;97524.59;5044473;28;20048;-66
2021/06/13 10:57:16;;;;;;;9.55;4.35;;;;;;;25.37;43.33;97526.91;5060673;28;20033;-66
2021/06/13 10:59:46;;;;;;;9.35;3.78;;;;;;;24.92;42.43;97527.75;5038408;28;20133;-66
2021/06/13 11:02:17;;;;;;;6.82;3.40;;;;;;;24.60;43.66;97521.03;5055205;28;20041;-66
2021/06/13 11:04:54;;;;;;;5.63;3.42;;;;;;;24.13;46.97;97521.38;5060000;28;20040;-64
2021/06/13 11:07:46;;;;;;;7.32;4.78;;;;;;;24.18;47.72;97523.66;5055151;28;20041;-64
2021/06/13 11:10:15;;;;;;;8.50;5.90;;;;;;;24.19;47.82;97528.06;5054215;28;20129;-65
2021/06/13 11:13:00;;;;;;;8.27;5.63;;;;;;;24.17;47.34;97519.31;5058551;28;20044;-65
2021/06/13 11:15:25;;;;;;;7.65;4.45;;;;;;;24.23;48.36;97521.13;5056165;28;20427;-65
2021/06/13 11:18:02;;;;;;;8.87;4.60;;;;;;;24.52;47.25;97519.63;5061049;28;20094;-65
2021/06/13 11:20:28;;;;;;;13.55;4.95;;;;;;;24.59;47.50;97519.47;5059546;28;20285;-66
2021/06/13 11:22:55;;;;;;;7.32;4.82;;;;;;;24.93;46.01;97515.34;5066919;28;20044;-65
2021/06/13 11:25:24;;;;;;;5.80;4.55;;;;;;;24.77;45.94;97502.94;5057385;28;20048;-65
2021/06/13 11:28:08;;;;;;;10.30;6.28;;;;;;;25.08;44.13;97508.09;5060769;28;20131;-65
2021/06/13 11:30:34;;;;;;;7.35;4.40;;;;;;;25.10;43.91;97513.25;5062621;28;20047;-66
2021/06/13 11:33:00;;;;;;;7.60;4.75;;;;;;;25.02;44.08;97507.06;5050411;28;20040;-65
2021/06/13 11:35:42;;;;;;;6.57;4.38;;;;;;;25.57;43.76;97498.69;5070384;28;20198;-66
2021/06/13 11:38:07;;;;;;;6.53;3.92;;;;;;;26.28;42.60;97500.44;5070245;28;20044;-66